Time;durP1;ratioP1;P1;durP2;ratioP2;P2;SDS_P1;SDS_P2;PMS_P1;PMS_P2;Temp;Humidity;BMP_temperature;BMP_pressure;BME280_temperature;BME280_humidity;BME280_pressure;Samples;Min_cycle;Max_cycle;Signal;HPM_P1;HPM_P2
2021/07/05 00:01:13;;;;;;;8.18;0.80;;;17.10;99.90;;;;;;4977834;28;20050;-84
2021/07/05 00:03:39;;;;;;;3.78;0.85;;;17.00;99.90;;;;;;4995434;28;20026;-84
2021/07/05 00:06:05;;;;;;;2.88;0.88;;;16.90;99.90;;;;;;4995389;28;20022;-84
2021/07/05 00:08:31;;;;;;;2.60;0.75;;;16.90;99.90;;;;;;4995324;28;20058;-84
2021/07/05 00:10:56;;;;;;;2.67;0.80;;;16.90;99.90;;;;;;4995279;28;20508;-84
2021/07/05 00:13:22;;;;;;;2.80;0.80;;;16.90;99.90;;;;;;4995244;28;20022;-83
2021/07/05 00:15:48;;;;;;;5.57;0.80;;;16.90;99.90;;;;;;4977736;28;20050;-84
2021/07/05 00:18:14;;;;;;;2.17;0.80;;;16.90;99.90;;;;;;4995180;28;20423;-83
2021/07/05 00:20:44;;;;;;;3.10;0.73;;;16.90;99.90;;;;;;4977662;28;20065;-84
2021/07/05 00:23:10;;;;;;;2.13;0.50;;;16.90;99.90;;;;;;4976774;28;20444;-84
2021/07/05 00:25:37;;;;;;;2.03;0.60;;;17.00;99.90;;;;;;4977591;28;20026;-84
2021/07/05 00:28:04;;;;;;;2.83;0.80;;;16.90;99.90;;;;;;4977463;28;20502;-84
2021/07/05 00:30:30;;;;;;;1.83;0.77;;;16.90;99.90;;;;;;4977512;28;20113;-84
2021/07/05 00:32:56;;;;;;;1.23;0.77;;;17.00;99.90;;;;;;4994921;28;20450;-84
2021/07/05 00:35:23;;;;;;;3.47;0.70;;;16.90;99.90;;;;;;4977417;28;20046;-84
2021/07/05 00:37:50;;;;;;;3.13;0.80;;;16.80;99.90;;;;;;4977351;28;20534;-84
2021/07/05 00:40:18;;;;;;;2.90;0.90;;;17.00;99.90;;;;;;4994775;28;20529;-84
2021/07/05 00:42:45;;;;;;;3.63;0.70;;;17.20;99.90;;;;;;4977290;28;20034;-84
2021/07/05 00:45:12;;;;;;;4.70;0.88;;;17.10;99.90;;;;;;4994675;28;20392;-84
2021/07/05 00:47:39;;;;;;;7.15;0.80;;;17.10;99.90;;;;;;4977100;28;20121;-84
2021/07/05 00:50:06;;;;;;;4.38;0.90;;;16.90;99.90;;;;;;4977189;28;20030;-84
2021/07/05 00:52:33;;;;;;;5.47;0.80;;;16.80;99.90;;;;;;4977148;28;20019;-84
2021/07/05 00:54:59;;;;;;;8.40;0.77;;;16.70;99.90;;;;;;4994577;28;20042;-84
2021/07/05 00:57:25;;;;;;;5.30;0.90;;;17.00;99.90;;;;;;4977034;28;20107;-84
2021/07/05 00:59:52;;;;;;;2.63;0.70;;;16.90;99.90;;;;;;4976956;28;20050;-84
2021/07/05 01:02:19;;;;;;;1.98;0.90;;;16.90;99.90;;;;;;4976792;28;20410;-84
2021/07/05 01:04:46;;;;;;;3.00;0.93;;;16.90;99.90;;;;;;4994370;28;20019;-84
2021/07/05 01:07:13;;;;;;;5.35;0.80;;;16.80;99.90;;;;;;4976918;28;20434;-84
2021/07/05 01:09:40;;;;;;;2.08;0.63;;;16.80;99.90;;;;;;4976806;28;20033;-84
2021/07/05 01:12:06;;;;;;;5.18;1.00;;;16.80;99.90;;;;;;4976994;28;20113;-83
2021/07/05 01:14:32;;;;;;;2.67;0.70;;;16.70;99.90;;;;;;4977112;28;20030;-83
2021/07/05 01:16:58;;;;;;;2.78;0.90;;;16.90;99.90;;;;;;4976870;28;20024;-84
2021/07/05 01:19:24;;;;;;;5.95;0.65;;;16.80;99.90;;;;;;4976927;28;20026;-84
2021/07/05 01:21:50;;;;;;;5.65;0.95;;;16.70;99.90;;;;;;4976681;28;20030;-84
2021/07/05 01:24:16;;;;;;;5.47;0.80;;;16.80;99.90;;;;;;4976680;28;20026;-84
2021/07/05 01:26:42;;;;;;;1.88;0.57;;;16.60;99.90;;;;;;4976646;28;20034;-84
2021/07/05 01:29:07;;;;;;;2.83;0.77;;;16.60;99.90;;;;;;4976533;28;20425;-84
2021/07/05 01:31:34;;;;;;;2.83;0.85;;;16.60;99.90;;;;;;4976628;28;20073;-84
2021/07/05 01:34:01;;;;;;;1.38;0.80;;;16.60;99.90;;;;;;4976404;28;20029;-84
2021/07/05 01:36:27;;;;;;;4.13;0.73;;;16.60;99.90;;;;;;4976519;28;20027;-84
2021/07/05 01:38:53;;;;;;;1.15;0.80;;;16.50;99.90;;;;;;4976533;28;20398;-84
2021/07/05 01:41:19;;;;;;;4.97;0.80;;;16.60;99.90;;;;;;4994168;28;20031;-84
2021/07/05 01:43:46;;;;;;;3.15;0.73;;;16.80;99.90;;;;;;4976503;28;20117;-84
2021/07/05 01:46:12;;;;;;;4.55;1.10;;;16.70;99.90;;;;;;4976416;28;20030;-84
2021/07/05 01:48:37;;;;;;;3.08;0.90;;;16.80;99.90;;;;;;4993752;28;20546;-84
2021/07/05 01:51:03;;;;;;;8.68;1.00;;;16.90;99.90;;;;;;4976380;28;20050;-84
2021/07/05 01:53:29;;;;;;;4.80;0.80;;;16.90;99.90;;;;;;4976298;28;20018;-84
2021/07/05 01:55:55;;;;;;;10.98;0.85;;;16.80;99.90;;;;;;4993809;28;20034;-84
2021/07/05 01:58:22;;;;;;;8.88;0.88;;;16.80;99.90;;;;;;4976369;28;20026;-84
2021/07/05 02:00:49;;;;;;;1.45;0.63;;;16.60;99.90;;;;;;4976061;28;20054;-83
2021/07/05 02:03:17;;;;;;;4.75;0.90;;;16.60;99.90;;;;;;4993668;28;20038;-83
2021/07/05 02:05:43;;;;;;;4.57;0.90;;;16.70;99.90;;;;;;4976203;28;20077;-84
2021/07/05 02:08:09;;;;;;;4.43;0.73;;;16.80;99.90;;;;;;4976193;28;20054;-84
2021/07/05 02:10:37;;;;;;;2.25;0.70;;;16.90;99.90;;;;;;4976170;28;20031;-84
2021/07/05 02:13:25;;;;;;;2.67;1.00;;;16.80;99.90;;;;;;4976155;28;20019;-84
2021/07/05 02:15:54;;;;;;;6.95;1.00;;;16.60;99.90;;;;;;4976180;28;20026;-84
2021/07/05 02:18:20;;;;;;;5.03;0.80;;;16.80;99.90;;;;;;4993588;28;20027;-83
2021/07/05 02:20:46;;;;;;;6.80;0.90;;;16.80;99.90;;;;;;4976075;28;20084;-84
2021/07/05 02:23:14;;;;;;;3.25;0.80;;;16.80;99.90;;;;;;4976073;28;20039;-83
2021/07/05 02:25:41;;;;;;;6.85;0.90;;;16.80;99.90;;;;;;4993468;28;20393;-83
2021/07/05 02:28:16;;;;;;;3.03;0.90;;;16.90;99.90;;;;;;4993680;28;20046;-84
2021/07/05 02:30:44;;;;;;;5.53;1.10;;;16.90;99.90;;;;;;4976063;28;20022;-83
2021/07/05 02:33:11;;;;;;;5.18;0.75;;;17.00;99.90;;;;;;4976031;28;20034;-83
2021/07/05 02:35:37;;;;;;;3.92;0.90;;;16.90;99.90;;;;;;4993366;28;20030;-84
2021/07/05 02:38:08;;;;;;;4.30;1.13;;;16.90;99.90;;;;;;4976020;28;20080;-83
2021/07/05 02:40:37;;;;;;;6.93;0.80;;;16.90;99.90;;;;;;4975979;28;20030;-83
2021/07/05 02:43:04;;;;;;;4.85;0.90;;;16.90;99.90;;;;;;4975941;28;20433;-84
2021/07/05 02:45:33;;;;;;;3.05;0.80;;;16.80;99.90;;;;;;4993434;28;20026;-83
2021/07/05 02:48:05;;;;;;;4.28;0.88;;;16.80;99.90;;;;;;4996846;28;20038;-83
2021/07/05 02:50:32;;;;;;;4.57;1.08;;;16.90;99.90;;;;;;4979376;28;20073;-83
2021/07/05 02:52:58;;;;;;;4.13;0.93;;;16.80;99.90;;;;;;4979317;28;20102;-83
2021/07/05 02:55:25;;;;;;;3.58;1.05;;;16.70;99.90;;;;;;4979291;28;20398;-83
2021/07/05 02:57:51;;;;;;;3.45;0.90;;;16.70;99.90;;;;;;4979193;28;20030;-83
2021/07/05 03:00:31;;;;;;;7.82;1.35;;;16.80;99.90;;;;;;4978892;28;20034;-83
2021/07/05 03:02:59;;;;;;;1.45;0.90;;;17.00;99.90;;;;;;4979210;28;20105;-83
2021/07/05 03:05:27;;;;;;;3.05;0.90;;;17.10;99.90;;;;;;4996553;28;20487;-84
2021/07/05 03:07:53;;;;;;;4.38;1.00;;;17.10;99.90;;;;;;4978988;28;20367;-83
2021/07/05 03:10:23;;;;;;;4.68;0.75;;;17.00;99.90;;;;;;4979016;28;20029;-83
2021/07/05 03:12:49;;;;;;;3.15;0.95;;;16.90;99.90;;;;;;4996447;28;20121;-83
2021/07/05 03:15:16;;;;;;;5.43;0.70;;;16.90;99.90;;;;;;4978925;28;20023;-83
2021/07/05 03:17:44;;;;;;;4.85;1.00;;;16.90;99.90;;;;;;4978825;28;20113;-83
2021/07/05 03:20:12;;;;;;;2.45;0.90;;;16.80;99.90;;;;;;4978771;28;20109;-83
2021/07/05 03:22:38;;;;;;;2.95;1.00;;;16.80;99.90;;;;;;4978764;28;20394;-83
2021/07/05 03:25:07;;;;;;;5.95;1.00;;;16.90;99.90;;;;;;4978717;28;20029;-83
2021/07/05 03:27:34;;;;;;;5.63;0.93;;;16.90;99.90;;;;;;4978651;28;20560;-83
2021/07/05 03:29:59;;;;;;;4.97;1.02;;;16.90;99.90;;;;;;4978788;28;20034;-83
2021/07/05 03:32:25;;;;;;;5.28;0.93;;;16.90;99.90;;;;;;4978662;28;20022;-84
2021/07/05 03:34:51;;;;;;;4.30;0.98;;;16.90;99.90;;;;;;4978558;28;20115;-83
2021/07/05 03:37:17;;;;;;;10.73;1.55;;;16.90;99.90;;;;;;4995959;28;20031;-83
2021/07/05 03:39:43;;;;;;;3.25;0.88;;;16.90;99.90;;;;;;4978497;28;20053;-83
2021/07/05 03:42:09;;;;;;;4.10;1.00;;;16.90;99.90;;;;;;4978429;28;20402;-83
2021/07/05 03:44:35;;;;;;;1.33;0.90;;;16.80;99.90;;;;;;4978455;28;20030;-84
2021/07/05 03:47:01;;;;;;;3.72;1.00;;;16.80;99.90;;;;;;4995779;28;20101;-83
2021/07/05 03:49:26;;;;;;;4.70;1.08;;;16.50;99.90;;;;;;4995681;28;20040;-84
2021/07/05 03:51:52;;;;;;;2.33;0.80;;;16.50;99.90;;;;;;4995702;28;20470;-84
2021/07/05 03:54:18;;;;;;;4.38;1.08;;;16.50;99.90;;;;;;4995643;28;20498;-83
2021/07/05 03:56:44;;;;;;;5.70;1.10;;;16.50;99.90;;;;;;4978191;28;20057;-83
2021/07/05 03:59:10;;;;;;;3.92;1.00;;;16.50;99.90;;;;;;4978665;28;20048;-83
2021/07/05 04:01:36;;;;;;;7.03;1.30;;;16.50;99.90;;;;;;4995149;28;20050;-84
2021/07/05 04:04:02;;;;;;;3.13;0.93;;;16.40;99.90;;;;;;4977930;28;20058;-83
2021/07/05 04:06:28;;;;;;;4.03;1.00;;;16.40;99.90;;;;;;4995372;28;20053;-83
2021/07/05 04:08:55;;;;;;;3.63;0.90;;;16.50;99.90;;;;;;4995317;28;20061;-83
2021/07/05 04:11:21;;;;;;;5.25;0.95;;;16.40;99.90;;;;;;4977895;28;20441;-83
2021/07/05 04:13:47;;;;;;;4.97;1.20;;;16.50;99.90;;;;;;4978052;28;20026;-83
2021/07/05 04:16:12;;;;;;;4.95;1.05;;;16.60;99.90;;;;;;4977756;28;20027;-84
2021/07/05 04:18:38;;;;;;;3.58;0.95;;;16.70;99.90;;;;;;4977744;28;20027;-83
2021/07/05 04:21:04;;;;;;;6.63;1.00;;;16.80;99.90;;;;;;4977629;28;20026;-83
2021/07/05 04:23:30;;;;;;;2.83;0.90;;;16.80;99.90;;;;;;4977683;28;20612;-83
2021/07/05 04:25:55;;;;;;;3.45;1.25;;;16.70;99.90;;;;;;4977516;28;20080;-83
2021/07/05 04:28:22;;;;;;;7.68;1.50;;;16.60;99.90;;;;;;4977448;28;20109;-84
2021/07/05 04:30:49;;;;;;;2.25;0.93;;;16.80;99.90;;;;;;4977476;28;20022;-83
2021/07/05 04:33:15;;;;;;;4.85;0.90;;;17.00;99.90;;;;;;4977507;28;20425;-83
2021/07/05 04:35:41;;;;;;;2.72;0.70;;;17.00;99.90;;;;;;4977401;28;20030;-83
2021/07/05 04:38:07;;;;;;;4.50;0.80;;;17.10;99.90;;;;;;4977343;28;20026;-83
2021/07/05 04:40:35;;;;;;;5.55;1.20;;;16.90;99.90;;;;;;4977305;28;20030;-84
2021/07/05 04:43:02;;;;;;;3.05;0.93;;;17.00;99.90;;;;;;4977254;28;20041;-83
2021/07/05 04:45:29;;;;;;;4.53;0.98;;;17.10;99.90;;;;;;4977223;28;20062;-84
2021/07/05 04:47:57;;;;;;;6.20;0.90;;;17.10;99.90;;;;;;4994587;28;20037;-83
2021/07/05 04:50:23;;;;;;;7.68;0.90;;;17.10;99.90;;;;;;4994835;28;20022;-83
2021/07/05 04:52:49;;;;;;;3.55;0.90;;;17.10;99.90;;;;;;4977132;28;20429;-83
2021/07/05 04:55:18;;;;;;;2.90;0.90;;;16.90;99.90;;;;;;4977056;28;20129;-83
2021/07/05 04:57:45;;;;;;;4.78;1.08;;;16.90;99.90;;;;;;4976973;28;20486;-84
2021/07/05 05:00:15;;;;;;;3.15;1.00;;;16.90;99.90;;;;;;4994047;28;20026;-83
2021/07/05 05:02:41;;;;;;;5.00;0.80;;;16.90;99.90;;;;;;4976957;28;20046;-83
2021/07/05 05:05:08;;;;;;;3.17;0.77;;;16.90;99.90;;;;;;4994340;28;20038;-83
2021/07/05 05:07:35;;;;;;;2.17;0.95;;;17.00;99.90;;;;;;4976816;28;20076;-83
2021/07/05 05:10:03;;;;;;;4.68;1.02;;;17.10;99.90;;;;;;4976542;28;20026;-82
2021/07/05 05:12:29;;;;;;;2.08;0.60;;;17.00;99.90;;;;;;4976930;28;20022;-83
2021/07/05 05:14:56;;;;;;;4.47;0.90;;;17.00;99.90;;;;;;4976741;28;20037;-83
2021/07/05 05:17:22;;;;;;;2.38;1.10;;;17.00;99.90;;;;;;4976982;28;20022;-83
2021/07/05 05:19:48;;;;;;;6.68;1.10;;;16.90;99.90;;;;;;4976668;28;20037;-83
2021/07/05 05:22:14;;;;;;;5.45;1.10;;;16.80;99.90;;;;;;4976544;28;20029;-83
2021/07/05 05:24:39;;;;;;;2.95;1.20;;;16.80;99.90;;;;;;4976643;28;20100;-83
2021/07/05 05:27:05;;;;;;;3.38;1.23;;;16.70;99.90;;;;;;4976549;28;20540;-83
2021/07/05 05:29:31;;;;;;;3.70;1.00;;;16.70;99.90;;;;;;4976411;28;20117;-83
2021/07/05 05:31:57;;;;;;;6.97;1.25;;;16.80;99.90;;;;;;4976617;28;20026;-83
2021/07/05 05:34:23;;;;;;;2.03;0.98;;;16.90;99.90;;;;;;4994202;28;20073;-83
2021/07/05 05:36:49;;;;;;;5.28;0.98;;;16.90;99.90;;;;;;4976558;28;20031;-83
2021/07/05 05:39:14;;;;;;;1.70;1.00;;;17.00;99.90;;;;;;4976578;28;20441;-83
2021/07/05 05:41:40;;;;;;;5.32;0.85;;;17.00;99.90;;;;;;4976591;28;20037;-83
2021/07/05 05:44:06;;;;;;;1.35;0.80;;;17.00;99.90;;;;;;4994140;28;20053;-83
2021/07/05 05:46:33;;;;;;;1.95;1.02;;;17.00;99.90;;;;;;4976548;28;20068;-83
2021/07/05 05:48:59;;;;;;;2.38;0.90;;;17.10;99.90;;;;;;4976441;28;20080;-83
2021/07/05 05:51:31;;;;;;;2.75;0.70;;;17.10;99.90;;;;;;4976362;28;20029;-84
2021/07/05 05:53:59;;;;;;;5.95;0.75;;;17.10;99.90;;;;;;4993843;28;20367;-84
2021/07/05 05:56:25;;;;;;;2.40;1.00;;;17.00;99.90;;;;;;4976392;28;20103;-84
2021/07/05 05:58:51;;;;;;;3.83;1.02;;;17.10;99.90;;;;;;4976204;28;20030;-83
2021/07/05 06:01:16;;;;;;;3.45;1.00;;;17.20;99.90;;;;;;4993539;28;20417;-82
2021/07/05 06:03:42;;;;;;;3.25;1.13;;;17.10;99.90;;;;;;4976291;28;20034;-81
2021/07/05 06:06:08;;;;;;;4.70;1.00;;;17.10;99.90;;;;;;4993659;28;20030;-81
2021/07/05 06:08:33;;;;;;;2.30;0.80;;;17.10;99.90;;;;;;4976519;28;20064;-81
2021/07/05 06:10:59;;;;;;;2.15;0.85;;;17.10;99.90;;;;;;4976647;28;20077;-81
2021/07/05 06:13:25;;;;;;;2.65;0.80;;;16.90;99.90;;;;;;4976468;28;20063;-81
2021/07/05 06:15:50;;;;;;;3.72;0.90;;;16.80;99.90;;;;;;4994219;28;20022;-82
2021/07/05 06:18:16;;;;;;;2.45;1.10;;;16.80;99.90;;;;;;4976512;28;20022;-82
2021/07/05 06:20:42;;;;;;;3.80;1.00;;;16.90;99.90;;;;;;4977201;28;20536;-81
2021/07/05 06:23:24;;;;;;;4.90;0.82;;;16.80;99.90;;;;;;4998262;28;20084;-81
2021/07/05 06:25:49;;;;;;;3.53;0.93;;;16.80;99.90;;;;;;4981040;28;20343;-81
2021/07/05 06:28:17;;;;;;;3.53;0.98;;;16.80;99.90;;;;;;4980337;28;20036;-81
2021/07/05 06:30:43;;;;;;;2.00;1.10;;;16.70;99.90;;;;;;4997498;28;20057;-81
2021/07/05 06:33:09;;;;;;;2.20;1.00;;;16.70;99.90;;;;;;4979940;28;20068;-82
2021/07/05 06:35:35;;;;;;;8.45;1.10;;;16.80;99.90;;;;;;4979961;28;20026;-81
2021/07/05 06:38:00;;;;;;;4.93;1.10;;;16.60;99.90;;;;;;4979797;28;20030;-81
2021/07/05 06:40:27;;;;;;;1.75;1.00;;;16.60;99.90;;;;;;4979833;28;20038;-81
2021/07/05 06:42:52;;;;;;;6.32;1.80;;;16.80;99.90;;;;;;4997245;28;20477;-81
2021/07/05 06:45:19;;;;;;;2.78;1.20;;;16.80;99.90;;;;;;4997199;28;20033;-81
2021/07/05 06:47:45;;;;;;;4.93;0.90;;;16.90;99.90;;;;;;4979698;28;20022;-81
2021/07/05 06:50:11;;;;;;;3.20;1.08;;;16.80;99.90;;;;;;4980615;28;20049;-82
2021/07/05 06:52:36;;;;;;;2.88;0.90;;;16.80;99.90;;;;;;4979619;28;20026;-81
2021/07/05 06:55:04;;;;;;;1.88;1.20;;;16.80;99.90;;;;;;4979512;28;20500;-81
2021/07/05 06:57:30;;;;;;;2.90;1.17;;;16.80;99.90;;;;;;4979778;28;20390;-82
2021/07/05 06:59:57;;;;;;;4.65;1.10;;;17.00;99.90;;;;;;4997107;28;20027;-81
2021/07/05 07:02:23;;;;;;;6.78;1.20;;;17.00;99.90;;;;;;4996847;28;20044;-82
2021/07/05 07:04:49;;;;;;;4.03;1.20;;;16.90;99.90;;;;;;4996803;28;20077;-82
2021/07/05 07:07:15;;;;;;;2.10;0.90;;;16.90;99.90;;;;;;4979337;28;20070;-81
2021/07/05 07:09:41;;;;;;;4.55;1.27;;;16.80;99.90;;;;;;4979298;28;20054;-81
2021/07/05 07:12:07;;;;;;;2.45;1.38;;;16.80;99.90;;;;;;4979142;28;20026;-82
2021/07/05 07:14:33;;;;;;;2.03;1.02;;;16.80;99.90;;;;;;4979176;28;20080;-81
2021/07/05 07:17:08;;;;;;;2.50;1.40;;;16.90;99.90;;;;;;4996834;28;20148;-81
2021/07/05 07:19:33;;;;;;;8.88;1.40;;;17.00;99.90;;;;;;4979053;28;20026;-82
2021/07/05 07:22:03;;;;;;;4.07;1.30;;;17.10;99.90;;;;;;4979071;28;20030;-82
2021/07/05 07:24:31;;;;;;;3.45;1.17;;;17.00;99.90;;;;;;4996773;28;20022;-82
2021/07/05 07:26:57;;;;;;;4.53;1.52;;;17.10;99.90;;;;;;4996474;28;20034;-82
2021/07/05 07:29:23;;;;;;;3.15;1.10;;;17.10;99.90;;;;;;4978927;28;20509;-81
2021/07/05 07:31:49;;;;;;;3.47;1.25;;;17.10;99.90;;;;;;4978387;28;20044;-82
2021/07/05 07:34:14;;;;;;;4.50;1.10;;;17.00;99.90;;;;;;4996572;28;20026;-82
2021/07/05 07:36:41;;;;;;;3.80;1.52;;;17.00;99.90;;;;;;4996209;28;20093;-81
2021/07/05 07:39:12;;;;;;;5.45;1.60;;;17.20;99.90;;;;;;4979003;28;20022;-82
2021/07/05 07:41:37;;;;;;;4.38;1.20;;;17.20;99.90;;;;;;4978781;28;20081;-81
2021/07/05 07:44:04;;;;;;;11.00;1.63;;;17.00;99.90;;;;;;4978579;28;20367;-82
2021/07/05 07:46:31;;;;;;;10.80;1.80;;;16.80;99.90;;;;;;4981233;28;20023;-82
2021/07/05 07:48:57;;;;;;;5.18;1.58;;;16.70;99.90;;;;;;4996086;28;20100;-82
2021/07/05 07:51:23;;;;;;;7.68;1.63;;;16.80;99.90;;;;;;4995955;28;20113;-82
2021/07/05 07:53:49;;;;;;;5.35;1.25;;;16.80;99.90;;;;;;4995995;28;20026;-82
2021/07/05 07:56:16;;;;;;;4.00;1.38;;;17.00;99.90;;;;;;4995852;28;20022;-82
2021/07/05 07:58:41;;;;;;;4.00;1.23;;;17.00;99.90;;;;;;4978518;28;20031;-81
2021/07/05 08:01:08;;;;;;;6.07;1.08;;;17.20;99.90;;;;;;4995695;28;20100;-83
2021/07/05 08:03:34;;;;;;;2.95;1.00;;;17.10;99.90;;;;;;4978315;28;20030;-83
2021/07/05 08:06:00;;;;;;;4.93;1.00;;;17.10;99.90;;;;;;4978193;28;20033;-82
2021/07/05 08:08:26;;;;;;;5.38;1.17;;;17.10;99.90;;;;;;4995613;28;20030;-82
2021/07/05 08:10:52;;;;;;;5.82;1.20;;;17.10;99.90;;;;;;4978183;28;20026;-83
2021/07/05 08:13:18;;;;;;;2.58;1.13;;;17.20;99.90;;;;;;4978103;28;20432;-83
2021/07/05 08:15:43;;;;;;;6.10;0.95;;;17.20;99.90;;;;;;4995549;28;20146;-82
2021/07/05 08:18:09;;;;;;;4.38;0.98;;;17.30;99.90;;;;;;4995773;28;20037;-81
2021/07/05 08:20:35;;;;;;;5.00;1.35;;;17.10;99.90;;;;;;4995485;28;20030;-82
2021/07/05 08:23:01;;;;;;;4.35;1.00;;;17.20;99.90;;;;;;4977914;28;20445;-82
2021/07/05 08:25:28;;;;;;;2.78;1.00;;;17.20;99.90;;;;;;4995660;28;20026;-82
2021/07/05 08:27:54;;;;;;;4.20;1.20;;;17.30;99.90;;;;;;4995293;28;20026;-82
2021/07/05 08:30:21;;;;;;;3.65;1.20;;;17.40;99.90;;;;;;4995325;28;20030;-83
2021/07/05 08:32:52;;;;;;;1.50;0.85;;;17.60;99.90;;;;;;4977778;28;20026;-82
2021/07/05 08:35:19;;;;;;;4.75;1.27;;;17.60;99.90;;;;;;4977624;28;20065;-83
2021/07/05 08:37:45;;;;;;;3.53;1.40;;;17.50;99.90;;;;;;4995387;28;20026;-82
2021/07/05 08:40:11;;;;;;;9.82;1.55;;;17.60;99.90;;;;;;4977753;28;20022;-83
2021/07/05 08:42:37;;;;;;;4.22;1.13;;;17.50;99.90;;;;;;4995018;28;20030;-83
2021/07/05 08:45:07;;;;;;;3.08;1.38;;;17.40;99.90;;;;;;4994185;28;20442;-82
2021/07/05 08:47:40;;;;;;;5.65;1.27;;;17.50;99.90;;;;;;4977520;28;20030;-83
2021/07/05 08:50:08;;;;;;;5.50;1.20;;;17.70;99.90;;;;;;4977417;28;20030;-82
2021/07/05 08:52:35;;;;;;;3.75;1.20;;;17.80;99.90;;;;;;4977530;28;20113;-83
2021/07/05 08:55:02;;;;;;;1.90;1.20;;;18.00;99.90;;;;;;4977295;28;20110;-82
2021/07/05 08:57:29;;;;;;;5.13;1.23;;;18.10;99.90;;;;;;4995164;28;20044;-81
2021/07/05 08:59:56;;;;;;;2.22;1.15;;;18.20;99.90;;;;;;4994726;28;20018;-81
2021/07/05 09:02:22;;;;;;;6.30;1.27;;;18.00;99.90;;;;;;4977162;28;20571;-82
2021/07/05 09:04:50;;;;;;;2.72;1.00;;;17.80;99.90;;;;;;4994584;28;20026;-82
2021/07/05 09:07:16;;;;;;;2.70;0.90;;;17.70;99.90;;;;;;4977469;28;20434;-82
2021/07/05 09:10:07;;;;;;;3.25;1.00;;;17.80;99.90;;;;;;4977058;28;20026;-83
2021/07/05 09:12:32;;;;;;;1.23;0.70;;;17.80;99.90;;;;;;4977182;28;20033;-82
2021/07/05 09:15:10;;;;;;;1.65;0.77;;;17.60;99.90;;;;;;4977402;28;20113;-81
2021/07/05 09:17:38;;;;;;;2.60;0.70;;;17.50;99.90;;;;;;4977151;28;20022;-82
2021/07/05 09:20:19;;;;;;;1.75;0.73;;;17.60;99.90;;;;;;4977112;28;20057;-82
2021/07/05 09:23:14;;;;;;;1.90;0.70;;;17.60;99.90;;;;;;4977026;28;20031;-83
2021/07/05 09:25:47;;;;;;;4.67;0.77;;;17.30;99.90;;;;;;4994432;28;20390;-82
2021/07/05 09:28:16;;;;;;;1.90;0.93;;;17.20;99.90;;;;;;4976984;28;20104;-82
2021/07/05 09:30:47;;;;;;;1.92;0.80;;;17.30;99.90;;;;;;4976969;28;20023;-82
2021/07/05 09:33:28;;;;;;;4.25;0.70;;;17.10;99.90;;;;;;4994300;28;20026;-83
2021/07/05 09:35:59;;;;;;;0.77;0.60;;;17.10;99.90;;;;;;4977478;28;20025;-83
2021/07/05 09:38:43;;;;;;;2.00;0.75;;;17.20;99.90;;;;;;4994343;28;20026;-83
2021/07/05 09:41:30;;;;;;;3.00;0.70;;;17.40;99.90;;;;;;4994306;28;20406;-83
2021/07/05 09:44:18;;;;;;;1.08;0.80;;;17.40;99.90;;;;;;4977029;28;20030;-82
2021/07/05 09:46:53;;;;;;;3.00;0.68;;;17.60;99.90;;;;;;4976713;28;20125;-82
2021/07/05 09:49:24;;;;;;;1.40;0.65;;;17.80;99.90;;;;;;4994380;28;20031;-82
2021/07/05 09:52:11;;;;;;;1.52;0.60;;;17.90;99.90;;;;;;4993969;28;20023;-82
2021/07/05 09:54:42;;;;;;;2.30;0.60;;;17.90;99.90;;;;;;4994295;28;20388;-83
2021/07/05 09:57:25;;;;;;;1.10;0.55;;;17.90;99.90;;;;;;4980756;28;20026;-82
2021/07/05 09:59:58;;;;;;;0.57;0.38;;;17.80;99.90;;;;;;4980533;28;20480;-82
2021/07/05 10:02:23;;;;;;;1.50;0.70;;;17.80;99.90;;;;;;4998008;28;20054;-83
2021/07/05 10:04:50;;;;;;;1.52;0.70;;;17.70;99.90;;;;;;4980792;28;20030;-82
2021/07/05 10:07:16;;;;;;;3.20;0.63;;;17.80;99.90;;;;;;4980769;28;20041;-83
2021/07/05 10:09:45;;;;;;;3.00;0.90;;;18.00;99.90;;;;;;4997969;28;20397;-81
2021/07/05 10:12:14;;;;;;;0.95;0.52;;;17.90;99.90;;;;;;4980420;28;20023;-82
2021/07/05 10:14:40;;;;;;;1.80;0.70;;;17.90;99.90;;;;;;4980424;28;20030;-82
2021/07/05 10:17:14;;;;;;;1.48;0.80;;;17.80;99.90;;;;;;4980354;28;20076;-81
2021/07/05 10:19:40;;;;;;;1.00;0.50;;;17.80;99.90;;;;;;4980488;28;20474;-82
2021/07/05 10:22:06;;;;;;;1.50;0.90;;;17.90;99.90;;;;;;4997802;28;20029;-83
2021/07/05 10:24:32;;;;;;;1.88;1.00;;;18.00;99.90;;;;;;4997784;28;20031;-82
2021/07/05 10:26:57;;;;;;;1.38;0.80;;;18.00;99.90;;;;;;4980164;28;20037;-82
2021/07/05 10:29:24;;;;;;;1.13;0.70;;;17.90;99.90;;;;;;4997551;28;20029;-82
2021/07/05 10:31:50;;;;;;;1.52;0.70;;;17.90;99.90;;;;;;4997571;28;20019;-82
2021/07/05 10:34:16;;;;;;;4.78;0.90;;;17.90;99.90;;;;;;4979929;28;20037;-82
2021/07/05 10:36:42;;;;;;;1.88;0.70;;;18.10;99.90;;;;;;4979873;28;20029;-82
2021/07/05 10:39:10;;;;;;;2.30;0.77;;;18.40;99.90;;;;;;4980775;28;20418;-83
2021/07/05 10:41:38;;;;;;;2.47;0.80;;;18.80;99.90;;;;;;4980027;28;20065;-81
2021/07/05 10:44:06;;;;;;;2.55;0.60;;;19.40;99.90;;;;;;4979928;28;20034;-82
2021/07/05 10:46:52;;;;;;;2.42;0.90;;;19.70;99.90;;;;;;4980082;28;20398;-83
2021/07/05 10:49:30;;;;;;;1.85;0.80;;;20.00;99.90;;;;;;4997341;28;20438;-82
2021/07/05 10:52:01;;;;;;;2.45;0.90;;;20.10;99.90;;;;;;4979645;28;20077;-82
2021/07/05 10:54:50;;;;;;;3.83;1.15;;;20.00;99.90;;;;;;4979749;28;20018;-81
2021/07/05 10:57:44;;;;;;;2.95;1.00;;;19.50;99.90;;;;;;4979546;28;20084;-83
2021/07/05 11:00:20;;;;;;;3.40;0.93;;;19.20;99.90;;;;;;4979551;28;20113;-82
2021/07/05 11:02:50;;;;;;;2.08;1.10;;;18.80;99.90;;;;;;4997076;28;20052;-82
2021/07/05 11:05:44;;;;;;;4.80;1.55;;;18.90;99.90;;;;;;4979649;28;20033;-82
2021/07/05 11:08:25;;;;;;;1.77;1.02;;;18.50;99.90;;;;;;4978582;28;20022;-83
2021/07/05 11:11:23;;;;;;;2.40;1.55;;;18.40;99.90;;;;;;4979354;28;20030;-83
2021/07/05 11:14:07;;;;;;;2.22;1.20;;;18.30;99.90;;;;;;4973835;28;20038;-83
2021/07/05 11:17:03;;;;;;;2.45;1.20;;;18.50;99.90;;;;;;4979477;28;20038;-83
2021/07/05 11:19:35;;;;;;;1.40;0.98;;;18.40;99.90;;;;;;4980854;28;20125;-83
2021/07/05 11:22:22;;;;;;;1.98;1.15;;;18.60;99.90;;;;;;4979187;28;20022;-82
2021/07/05 11:24:54;;;;;;;3.17;1.30;;;18.80;99.90;;;;;;4979165;28;20030;-81
2021/07/05 11:27:34;;;;;;;2.35;1.15;;;18.90;99.90;;;;;;4979104;28;20453;-82
2021/07/05 11:30:15;;;;;;;3.83;1.20;;;19.10;99.90;;;;;;4979099;28;20030;-81
2021/07/05 11:32:43;;;;;;;2.95;1.02;;;19.00;99.90;;;;;;4979216;28;20019;-82
2021/07/05 11:35:31;;;;;;;3.35;1.00;;;18.80;99.90;;;;;;4996423;28;20466;-83
2021/07/05 11:37:59;;;;;;;6.18;1.10;;;19.00;99.90;;;;;;4979148;28;20433;-82
2021/07/05 11:40:43;;;;;;;2.25;0.85;;;19.30;99.90;;;;;;4979674;28;20030;-83
2021/07/05 11:43:10;;;;;;;2.17;0.77;;;19.30;99.90;;;;;;4979057;28;20478;-81
2021/07/05 11:45:48;;;;;;;2.58;0.82;;;19.40;99.90;;;;;;4978830;28;20041;-82
2021/07/05 11:48:38;;;;;;;1.67;0.75;;;19.70;99.90;;;;;;4978689;28;20482;-82
2021/07/05 11:51:22;;;;;;;1.63;0.80;;;19.60;99.90;;;;;;4978806;28;20117;-83
2021/07/05 11:53:52;;;;;;;1.95;0.75;;;19.60;99.90;;;;;;4978835;28;20030;-82
2021/07/05 11:56:30;;;;;;;1.77;0.82;;;19.80;99.90;;;;;;4978715;28;20024;-83
2021/07/05 11:58:57;;;;;;;2.88;0.65;;;20.00;99.90;;;;;;4996331;28;20564;-82
2021/07/05 12:01:28;;;;;;;1.30;0.70;;;20.30;99.90;;;;;;4978283;28;20054;-81
2021/07/05 12:03:56;;;;;;;2.13;0.60;;;20.20;99.90;;;;;;4995897;28;20085;-81
2021/07/05 12:06:22;;;;;;;2.25;0.60;;;20.10;99.90;;;;;;4996030;28;20022;-82
2021/07/05 12:09:07;;;;;;;1.60;0.55;;;20.10;99.90;;;;;;4995343;28;20485;-81
2021/07/05 12:11:34;;;;;;;;;;;20.10;99.90;;;;;;4978435;28;20022;-81
2021/07/05 12:14:15;;;;;;;6.65;0.55;;;20.10;99.90;;;;;;4995362;28;19957;-81
2021/07/05 12:16:50;;;;;;;0.52;0.40;;;20.00;99.90;;;;;;4977888;28;20026;-82
2021/07/05 12:19:16;;;;;;;1.45;0.47;;;20.10;99.90;;;;;;4994541;28;20041;-82
2021/07/05 12:21:49;;;;;;;2.05;0.60;;;20.30;99.90;;;;;;4977755;28;20026;-81
2021/07/05 12:24:19;;;;;;;1.13;0.50;;;20.50;99.90;;;;;;4978615;28;20026;-81
2021/07/05 12:26:51;;;;;;;0.65;0.47;;;20.70;99.90;;;;;;4977668;28;20085;-81
2021/07/05 12:29:24;;;;;;;0.35;0.32;;;21.30;99.90;;;;;;4995270;28;20470;-82
2021/07/05 12:32:15;;;;;;;0.70;0.55;;;21.60;99.90;;;;;;4995058;28;20025;-82
2021/07/05 12:34:43;;;;;;;1.70;0.60;;;21.70;99.90;;;;;;4986565;28;20069;-81
2021/07/05 12:37:20;;;;;;;1.92;0.60;;;21.80;99.90;;;;;;4994881;28;20026;-82
2021/07/05 12:39:54;;;;;;;2.35;0.47;;;21.80;99.90;;;;;;4977418;28;20053;-82
2021/07/05 12:42:27;;;;;;;0.65;0.40;;;21.80;99.90;;;;;;4977333;28;20033;-82
2021/07/05 12:44:54;;;;;;;1.77;0.47;;;22.30;99.90;;;;;;4994773;28;20033;-80
2021/07/05 12:47:21;;;;;;;3.30;0.70;;;22.20;99.90;;;;;;4977326;28;20064;-82
2021/07/05 12:49:49;;;;;;;3.47;0.47;;;21.90;99.90;;;;;;4977182;28;20034;-82
2021/07/05 12:52:15;;;;;;;3.58;0.50;;;21.70;99.90;;;;;;4977232;28;20026;-81
2021/07/05 12:54:41;;;;;;;2.72;0.40;;;21.40;99.90;;;;;;4977129;28;20076;-80
2021/07/05 12:57:19;;;;;;;2.33;0.40;;;21.40;99.90;;;;;;4994593;28;20050;-82